createdAt,value
2018-06-05T00:01:26.660Z,20.40
2018-06-05T00:03:55.284Z,21.37
2018-06-05T00:06:24.053Z,22.10
2018-06-05T00:08:53.094Z,19.20
2018-06-05T00:11:21.916Z,18.17
2018-06-05T00:13:50.512Z,21.90
2018-06-05T00:19:16.718Z,18.33
2018-06-05T00:21:45.496Z,19.10
2018-06-05T00:24:14.341Z,19.70
2018-06-05T00:26:43.161Z,15.77
2018-06-05T00:29:11.925Z,19.93
2018-06-05T00:31:41.054Z,20.47
2018-06-05T00:34:09.810Z,18.17
2018-06-05T00:36:38.681Z,20.80
2018-06-05T00:39:07.989Z,19.63
2018-06-05T00:41:36.765Z,22.63
2018-06-05T00:44:05.525Z,27.10
2018-06-05T00:46:34.330Z,22.43
2018-06-05T00:49:03.118Z,19.23
2018-06-05T00:51:43.341Z,21.17
2018-06-05T00:54:12.159Z,13.93
2018-06-05T00:56:41.021Z,22.13
2018-06-05T00:59:09.909Z,21.50
2018-06-05T01:01:38.742Z,17.00
2018-06-05T01:04:07.525Z,16.43
2018-06-05T01:06:36.332Z,20.63
2018-06-05T01:09:06.360Z,18.60
2018-06-05T01:11:35.081Z,21.10
2018-06-05T01:14:04.022Z,23.60
2018-06-05T01:16:32.818Z,14.90
2018-06-05T01:19:01.392Z,22.43
2018-06-05T01:21:29.992Z,19.17
2018-06-05T01:23:58.810Z,17.70
2018-06-05T01:26:27.632Z,16.20
2018-06-05T01:28:56.425Z,16.40
2018-06-05T01:31:25.198Z,22.13
2018-06-05T01:33:53.941Z,18.43
2018-06-05T01:36:22.709Z,16.37
2018-06-05T01:38:51.701Z,24.87
2018-06-05T01:41:20.694Z,24.63
2018-06-05T01:43:49.473Z,14.27
2018-06-05T01:46:18.265Z,20.90
2018-06-05T01:48:47.013Z,18.53
2018-06-05T01:51:15.782Z,19.10
2018-06-05T01:53:44.565Z,17.13
2018-06-05T01:56:13.375Z,13.17
2018-06-05T01:58:41.972Z,18.30
2018-06-05T02:01:10.673Z,20.63
2018-06-05T02:03:39.442Z,17.83
2018-06-05T02:06:08.225Z,20.80
2018-06-05T02:08:37.114Z,21.00
2018-06-05T02:11:05.889Z,20.23
2018-06-05T02:13:34.657Z,15.33
2018-06-05T02:16:03.441Z,18.57
2018-06-05T02:18:32.077Z,16.73
2018-06-05T02:21:00.753Z,21.17
2018-06-05T02:23:29.565Z,20.83
2018-06-05T02:25:58.341Z,15.53
2018-06-05T02:28:27.157Z,22.77
2018-06-05T02:30:55.999Z,17.17
2018-06-05T02:33:24.797Z,15.80
2018-06-05T02:35:53.595Z,21.70
2018-06-05T02:38:22.346Z,16.57
2018-06-05T02:40:53.518Z,19.23
2018-06-05T02:43:22.338Z,12.23
2018-06-05T02:45:51.533Z,17.10
2018-06-05T02:48:20.312Z,17.30
2018-06-05T02:50:49.290Z,17.70
2018-06-05T02:53:18.158Z,16.67
2018-06-05T02:55:47.010Z,23.27
2018-06-05T02:58:15.778Z,16.30
2018-06-05T03:00:44.565Z,17.93
2018-06-05T03:03:13.335Z,19.40
2018-06-05T03:05:42.138Z,17.33
2018-06-05T03:08:10.965Z,18.63
2018-06-05T03:10:39.862Z,19.80
2018-06-05T03:13:08.394Z,20.80
2018-06-05T03:15:37.081Z,17.13
2018-06-05T03:18:05.842Z,17.30
2018-06-05T03:20:34.620Z,24.13
2018-06-05T03:23:03.260Z,17.30
2018-06-05T03:25:32.000Z,25.00
2018-06-05T03:28:00.762Z,17.63
2018-06-05T03:30:30.620Z,20.27
2018-06-05T03:32:59.473Z,18.23
2018-06-05T03:35:28.353Z,19.50
2018-06-05T03:37:57.142Z,16.80
2018-06-05T03:40:26.000Z,20.47
2018-06-05T03:42:54.797Z,17.00
2018-06-05T03:45:23.566Z,16.57
2018-06-05T03:47:52.353Z,24.97
2018-06-05T03:50:21.149Z,19.13
2018-06-05T03:52:49.937Z,13.73
2018-06-05T03:55:18.717Z,18.00
2018-06-05T03:57:47.628Z,15.13
2018-06-05T04:00:16.438Z,18.57
2018-06-05T04:02:45.209Z,18.80
2018-06-05T04:05:14.138Z,14.23
2018-06-05T04:07:42.724Z,21.73
2018-06-05T04:10:11.386Z,20.63
2018-06-05T04:12:40.158Z,15.90
2018-06-05T04:15:08.946Z,16.23
2018-06-05T04:17:37.837Z,14.43
2018-06-05T04:20:06.645Z,15.47
2018-06-05T04:22:35.412Z,15.53
2018-06-05T04:25:04.229Z,15.10
2018-06-05T04:27:33.123Z,18.70
2018-06-05T04:30:02.010Z,17.17
2018-06-05T04:32:30.781Z,18.50
2018-06-05T04:34:59.595Z,20.63
2018-06-05T04:37:28.192Z,17.93
2018-06-05T04:39:56.853Z,12.90
2018-06-05T04:42:25.677Z,15.27
2018-06-05T04:44:54.598Z,15.30
2018-06-05T04:47:23.386Z,19.40
2018-06-05T04:49:52.353Z,19.17
2018-06-05T04:52:21.125Z,14.70
2018-06-05T04:54:49.915Z,17.17
2018-06-05T04:57:18.696Z,16.87
2018-06-05T04:59:47.449Z,20.80
2018-06-05T05:02:16.236Z,16.20
2018-06-05T05:04:44.996Z,17.87
2018-06-05T05:07:13.754Z,18.07
2018-06-05T05:09:42.529Z,18.50
2018-06-05T05:12:11.326Z,13.13
2018-06-05T05:14:40.077Z,20.13
2018-06-05T05:17:08.944Z,16.37
2018-06-05T05:19:37.690Z,16.37
2018-06-05T05:22:06.297Z,19.87
2018-06-05T05:24:34.966Z,19.67
2018-06-05T05:27:03.745Z,17.03
2018-06-05T05:29:32.509Z,14.87
2018-06-05T05:32:01.281Z,19.53
2018-06-05T05:34:30.029Z,19.23
2018-06-05T05:36:58.802Z,15.80
2018-06-05T05:39:27.553Z,19.23
2018-06-05T05:41:56.372Z,14.53
2018-06-05T05:44:25.106Z,17.07
2018-06-05T05:46:53.659Z,14.80
2018-06-05T05:49:22.297Z,18.57
2018-06-05T05:51:51.121Z,16.60
2018-06-05T05:54:19.705Z,15.73
2018-06-05T05:56:48.199Z,21.37
2018-06-05T05:59:16.870Z,17.93
2018-06-05T06:01:45.436Z,17.63
2018-06-05T06:04:14.110Z,15.73
2018-06-05T06:06:42.926Z,18.07
2018-06-05T06:09:11.713Z,16.00
2018-06-05T06:11:40.481Z,11.63
2018-06-05T06:14:09.292Z,22.60
2018-06-05T06:16:38.081Z,14.27
2018-06-05T06:19:06.841Z,18.00
2018-06-05T06:21:35.673Z,16.23
2018-06-05T06:24:04.231Z,12.50
2018-06-05T06:26:32.930Z,18.20
2018-06-05T06:29:01.697Z,15.70
2018-06-05T06:31:30.482Z,14.20
2018-06-05T06:33:59.245Z,13.73
2018-06-05T06:36:28.005Z,14.80
2018-06-05T06:38:56.769Z,15.60
2018-06-05T06:41:25.562Z,16.90
2018-06-05T06:43:54.321Z,11.53
2018-06-05T06:46:23.195Z,13.80
2018-06-05T06:48:52.016Z,16.33
2018-06-05T06:51:20.478Z,17.23
2018-06-05T06:53:49.201Z,15.30
2018-06-05T06:56:17.759Z,17.03
2018-06-05T06:58:46.436Z,12.73
2018-06-05T07:01:15.218Z,15.27
2018-06-05T07:03:44.006Z,19.93
2018-06-05T07:06:12.794Z,13.33
2018-06-05T07:08:41.580Z,20.83
2018-06-05T07:11:10.355Z,13.73
2018-06-05T07:13:39.141Z,20.90
2018-06-05T07:16:07.901Z,20.57
2018-06-05T07:18:36.682Z,19.70
2018-06-05T07:21:05.256Z,12.50
2018-06-05T07:23:33.957Z,16.03
2018-06-05T07:26:02.533Z,21.73
2018-06-05T07:28:31.213Z,15.60
2018-06-05T07:30:59.997Z,18.70
2018-06-05T07:33:28.790Z,19.30
2018-06-05T07:35:57.550Z,18.03
2018-06-05T07:38:26.329Z,21.57
2018-06-05T07:40:55.084Z,18.83
2018-06-05T07:43:23.845Z,15.97
2018-06-05T07:45:52.369Z,13.73
2018-06-05T07:48:21.103Z,17.63
2018-06-05T07:50:50.001Z,16.57
2018-06-05T07:53:18.769Z,15.70
2018-06-05T07:55:47.534Z,13.17
2018-06-05T07:58:16.295Z,19.33
2018-06-05T08:00:45.046Z,15.77
2018-06-05T08:03:13.909Z,12.67
2018-06-05T08:05:42.861Z,19.93
2018-06-05T08:08:11.452Z,15.53
2018-06-05T08:10:40.105Z,16.17
2018-06-05T08:13:08.872Z,15.57
2018-06-05T08:15:37.785Z,16.30
2018-06-05T08:18:06.565Z,13.00
2018-06-05T08:20:35.319Z,18.00
2018-06-05T08:23:04.118Z,19.93
2018-06-05T08:25:32.941Z,12.60
2018-06-05T08:28:01.705Z,13.20
2018-06-05T08:30:30.488Z,18.00
2018-06-05T08:32:59.275Z,23.57
2018-06-05T08:35:28.045Z,18.10
2018-06-05T08:37:56.842Z,23.37
2018-06-05T08:40:25.568Z,15.47
2018-06-05T08:42:54.329Z,14.73
2018-06-05T08:45:23.106Z,16.97
2018-06-05T08:47:51.857Z,17.87
2018-06-05T08:50:20.622Z,12.03
2018-06-05T08:52:49.388Z,18.60
2018-06-05T08:55:18.149Z,17.40
2018-06-05T08:57:46.953Z,18.90
2018-06-05T09:00:15.724Z,14.37
2018-06-05T09:02:44.477Z,17.80
2018-06-05T09:05:13.039Z,20.67
2018-06-05T09:07:41.711Z,10.20
2018-06-05T09:10:10.522Z,17.93
2018-06-05T09:12:39.401Z,15.17
2018-06-05T09:15:08.201Z,15.77
2018-06-05T09:17:36.969Z,22.90
2018-06-05T09:20:05.746Z,17.83
2018-06-05T09:22:34.529Z,21.47
2018-06-05T09:25:03.291Z,17.70
2018-06-05T09:27:32.046Z,17.50
2018-06-05T09:30:00.809Z,16.37
2018-06-05T09:32:29.725Z,12.90
2018-06-05T09:34:58.501Z,17.13
2018-06-05T09:37:27.276Z,13.37
2018-06-05T09:39:56.605Z,16.97
2018-06-05T09:42:25.393Z,21.07
2018-06-05T09:44:54.080Z,17.23
2018-06-05T09:47:22.769Z,27.33
2018-06-05T09:49:51.449Z,28.80
2018-06-05T09:52:20.296Z,28.10
2018-06-05T09:54:49.052Z,32.50
2018-06-05T09:57:17.814Z,29.70
2018-06-05T09:59:46.576Z,15.17
2018-06-05T10:02:15.380Z,13.87
2018-06-05T10:04:44.141Z,20.47
2018-06-05T10:07:12.913Z,15.57
2018-06-05T10:09:41.672Z,15.77
2018-06-05T10:12:10.442Z,16.30
2018-06-05T10:14:39.222Z,16.97
2018-06-05T10:17:07.989Z,16.23
2018-06-05T10:19:36.765Z,17.57
2018-06-05T10:22:05.549Z,17.87
2018-06-05T10:24:34.312Z,17.33
2018-06-05T10:27:03.070Z,17.97
2018-06-05T10:29:31.839Z,14.70
2018-06-05T10:32:00.597Z,16.80
2018-06-05T10:34:29.365Z,15.07
2018-06-05T10:36:58.122Z,15.07
2018-06-05T10:39:26.893Z,16.47
2018-06-05T10:41:55.752Z,12.53
2018-06-05T10:44:25.614Z,16.33
2018-06-05T10:46:54.377Z,22.07
2018-06-05T10:49:23.321Z,11.87
2018-06-05T10:51:52.106Z,15.47
2018-06-05T10:54:20.877Z,20.27
2018-06-05T10:56:49.420Z,15.80
2018-06-05T10:59:18.133Z,17.80
2018-06-05T11:01:46.885Z,11.73
2018-06-05T11:04:15.668Z,12.23
2018-06-05T11:06:44.398Z,14.17
2018-06-05T11:09:13.431Z,11.93
2018-06-05T11:11:42.257Z,15.90
2018-06-05T11:14:11.045Z,19.77
2018-06-05T11:16:40.852Z,19.60
2018-06-05T11:19:09.674Z,20.40
2018-06-05T11:21:38.553Z,17.70
2018-06-05T11:24:07.317Z,15.70
2018-06-05T11:26:36.090Z,15.53
2018-06-05T11:29:05.209Z,16.30
2018-06-05T11:31:33.988Z,14.93
2018-06-05T11:34:02.737Z,11.80
2018-06-05T11:36:31.519Z,17.23
2018-06-05T11:39:00.053Z,14.03
2018-06-05T11:41:28.733Z,11.80
2018-06-05T11:43:57.476Z,16.60
2018-06-05T11:46:26.281Z,16.43
2018-06-05T11:48:55.046Z,16.97
2018-06-05T11:51:23.692Z,13.67
2018-06-05T11:53:52.372Z,19.03
2018-06-05T11:56:21.136Z,15.23
2018-06-05T11:58:49.889Z,17.07
2018-06-05T12:01:18.696Z,14.20
2018-06-05T12:03:47.273Z,12.87
2018-06-05T12:06:15.954Z,17.67
2018-06-05T12:08:44.745Z,13.87
2018-06-05T12:11:13.533Z,17.60
2018-06-05T12:13:42.068Z,13.17
2018-06-05T12:16:10.749Z,14.30
2018-06-05T12:18:39.500Z,11.87
2018-06-05T12:21:08.293Z,17.43
2018-06-05T12:23:37.057Z,18.13
2018-06-05T12:26:05.853Z,17.23
2018-06-05T12:28:34.760Z,18.30
2018-06-05T12:31:05.690Z,15.47
2018-06-05T12:33:34.416Z,13.17
2018-06-05T12:36:03.177Z,11.33
2018-06-05T12:38:31.942Z,14.50
2018-06-05T12:41:00.501Z,12.20
2018-06-05T12:43:29.165Z,12.40
2018-06-05T12:45:57.992Z,13.27
2018-06-05T12:48:27.148Z,16.03
2018-06-05T12:50:56.046Z,11.53
2018-06-05T12:53:24.794Z,12.63
2018-06-05T12:55:53.403Z,12.27
2018-06-05T12:58:22.434Z,13.37
2018-06-05T13:00:51.253Z,11.60
2018-06-05T13:03:19.819Z,12.80
2018-06-05T13:05:48.328Z,15.63
2018-06-05T13:08:16.998Z,10.53
2018-06-05T13:10:45.776Z,12.57
2018-06-05T13:13:14.538Z,15.93
2018-06-05T13:15:43.317Z,14.13
2018-06-05T13:18:12.105Z,13.90
2018-06-05T13:20:40.893Z,12.43
2018-06-05T13:23:09.699Z,12.80
2018-06-05T13:25:38.448Z,13.17
2018-06-05T13:28:07.213Z,11.80
2018-06-05T13:30:36.006Z,11.67
2018-06-05T13:33:04.769Z,9.30
2018-06-05T13:35:33.376Z,14.77
2018-06-05T13:38:02.053Z,14.33
2018-06-05T13:40:30.829Z,12.47
2018-06-05T13:42:59.605Z,13.60
2018-06-05T13:45:28.370Z,12.43
2018-06-05T13:47:57.206Z,11.67
2018-06-05T13:50:25.966Z,11.50
2018-06-05T13:52:54.774Z,13.60
2018-06-05T13:55:23.533Z,13.43
2018-06-05T13:57:52.299Z,13.90
2018-06-05T14:00:21.049Z,12.10
2018-06-05T14:02:49.822Z,14.00
2018-06-05T14:05:18.577Z,12.30
2018-06-05T14:07:47.360Z,11.80
2018-06-05T14:10:16.113Z,11.53
2018-06-05T14:12:44.687Z,10.53
2018-06-05T14:15:13.357Z,13.00
2018-06-05T14:17:42.126Z,16.63
2018-06-05T14:20:10.894Z,10.33
2018-06-05T14:22:39.788Z,13.67
2018-06-05T14:25:08.548Z,10.70
2018-06-05T14:27:37.272Z,15.53
2018-06-05T14:30:05.961Z,13.70
2018-06-05T14:32:34.721Z,13.50
2018-06-05T14:35:03.477Z,12.27
2018-06-05T14:37:32.072Z,12.30
2018-06-05T14:40:00.734Z,12.90
2018-06-05T14:42:29.509Z,15.83
2018-06-05T14:44:58.352Z,17.90
2018-06-05T14:47:27.041Z,10.70
2018-06-05T14:49:55.789Z,13.17
2018-06-05T14:52:24.561Z,12.50
2018-06-05T14:54:53.325Z,11.73
2018-06-05T14:57:22.709Z,14.10
2018-06-05T14:59:51.565Z,13.80
2018-06-05T15:02:20.329Z,11.00
2018-06-05T15:04:49.093Z,12.90
2018-06-05T15:07:17.877Z,12.83
2018-06-05T15:09:46.766Z,14.97
2018-06-05T15:12:15.573Z,20.93
2018-06-05T15:14:44.493Z,13.70
2018-06-05T15:17:13.246Z,16.33
2018-06-05T15:19:41.993Z,13.20
2018-06-05T15:22:10.887Z,15.60
2018-06-05T15:24:39.681Z,14.67
2018-06-05T15:27:08.261Z,14.13
2018-06-05T15:29:37.148Z,18.50
2018-06-05T15:32:06.241Z,13.30
2018-06-05T15:34:34.792Z,9.57
2018-06-05T15:37:03.478Z,13.47
2018-06-05T15:39:32.401Z,10.07
2018-06-05T15:42:00.980Z,12.30
2018-06-05T15:44:29.669Z,12.27
2018-06-05T15:46:58.248Z,11.90
2018-06-05T15:49:26.721Z,15.70
2018-06-05T15:51:55.212Z,13.73
2018-06-05T15:54:23.895Z,11.93
2018-06-05T15:56:52.677Z,19.53
2018-06-05T15:59:21.466Z,12.70
2018-06-05T16:01:50.233Z,11.33
2018-06-05T16:04:19.017Z,12.67
2018-06-05T16:06:47.937Z,13.30
2018-06-05T16:09:16.930Z,11.23
2018-06-05T16:11:45.713Z,10.10
2018-06-05T16:14:14.669Z,12.63
2018-06-05T16:16:43.451Z,11.63
2018-06-05T16:19:12.222Z,12.53
2018-06-05T16:21:41.002Z,8.67
2018-06-05T16:24:09.784Z,12.20
2018-06-05T16:26:38.362Z,12.20
2018-06-05T16:29:07.033Z,10.40
2018-06-05T16:31:35.797Z,9.53
2018-06-05T16:34:04.565Z,13.03
2018-06-05T16:36:33.314Z,8.43
2018-06-05T16:39:02.085Z,12.10
2018-06-05T16:41:30.866Z,9.83
2018-06-05T16:43:59.636Z,11.37
2018-06-05T16:46:28.790Z,13.57
2018-06-05T16:48:57.573Z,10.37
2018-06-05T16:51:26.361Z,10.67
2018-06-05T16:53:55.150Z,12.17
2018-06-05T16:56:23.905Z,14.50
2018-06-05T16:58:52.689Z,13.63
2018-06-05T17:01:21.502Z,11.27
2018-06-05T17:03:50.096Z,13.27
2018-06-05T17:06:18.786Z,12.33
2018-06-05T17:08:47.575Z,15.70
2018-06-05T17:11:16.620Z,10.03
2018-06-05T17:13:45.460Z,11.30
2018-06-05T17:16:15.148Z,12.53
2018-06-05T17:18:44.042Z,12.47
2018-06-05T17:21:12.810Z,11.00
2018-06-05T17:23:41.754Z,11.70
2018-06-05T17:26:10.704Z,12.60
2018-06-05T17:28:39.466Z,15.57
2018-06-05T17:31:08.253Z,12.87
2018-06-05T17:33:37.079Z,10.83
2018-06-05T17:36:05.672Z,11.67
2018-06-05T17:38:34.353Z,11.70
2018-06-05T17:41:02.904Z,11.23
2018-06-05T17:43:31.586Z,12.77
2018-06-05T17:46:00.428Z,13.57
2018-06-05T17:48:29.302Z,15.80
2018-06-05T17:50:58.164Z,11.93
2018-06-05T17:53:27.029Z,10.53
2018-06-05T17:55:55.800Z,11.03
2018-06-05T17:58:24.558Z,11.33
2018-06-05T18:00:53.140Z,11.83
2018-06-05T18:03:21.633Z,12.23
2018-06-05T18:05:50.320Z,9.97
2018-06-05T18:08:19.070Z,11.47
2018-06-05T18:10:47.881Z,9.30
2018-06-05T18:13:16.645Z,10.33
2018-06-05T18:15:45.412Z,11.07
2018-06-05T18:18:14.197Z,10.77
2018-06-05T18:20:42.959Z,7.03
2018-06-05T18:23:11.725Z,9.77
2018-06-05T18:25:40.537Z,10.13
2018-06-05T18:28:09.317Z,9.33
2018-06-05T18:30:38.297Z,8.83
2018-06-05T18:33:07.070Z,10.77
2018-06-05T18:35:35.865Z,9.67
2018-06-05T18:38:04.638Z,7.97
2018-06-05T18:40:33.400Z,9.10
2018-06-05T18:43:02.147Z,8.30
2018-06-05T18:45:30.705Z,7.73
2018-06-05T18:47:59.369Z,7.53
2018-06-05T18:50:28.117Z,7.40
2018-06-05T18:52:56.644Z,7.00
2018-06-05T18:55:26.978Z,11.37
2018-06-05T18:57:55.740Z,7.43
2018-06-05T19:00:24.561Z,8.63
2018-06-05T19:02:53.432Z,7.80
2018-06-05T19:05:22.222Z,9.67
2018-06-05T19:07:50.958Z,7.83
2018-06-05T19:10:19.512Z,7.40
2018-06-05T19:12:48.169Z,7.40
2018-06-05T19:15:16.921Z,7.57
2018-06-05T19:17:45.492Z,7.60
2018-06-05T19:20:13.972Z,7.43
2018-06-05T19:22:42.625Z,5.83
2018-06-05T19:25:11.397Z,6.30
2018-06-05T19:27:40.146Z,5.67
2018-06-05T19:30:08.732Z,6.43
2018-06-05T19:32:37.397Z,7.80
2018-06-05T19:35:06.165Z,5.67
2018-06-05T19:37:34.923Z,5.83
2018-06-05T19:40:03.701Z,6.13
2018-06-05T19:42:32.452Z,5.53
2018-06-05T19:45:01.202Z,6.83
2018-06-05T19:47:30.042Z,6.20
2018-06-05T19:49:59.826Z,6.70
2018-06-05T19:52:28.837Z,6.00
2018-06-05T19:54:57.598Z,6.57
2018-06-05T19:57:26.401Z,5.10
2018-06-05T19:59:55.167Z,8.07
2018-06-05T20:02:23.954Z,7.70
2018-06-05T20:04:52.725Z,6.17
2018-06-05T20:07:21.491Z,7.13
2018-06-05T20:09:50.253Z,6.43
2018-06-05T20:12:19.038Z,3.87
2018-06-05T20:14:47.733Z,5.77
2018-06-05T20:17:16.488Z,5.93
2018-06-05T20:19:45.255Z,12.47
2018-06-05T20:22:14.588Z,11.43
2018-06-05T20:24:49.185Z,11.10
2018-06-05T20:27:18.657Z,8.80
2018-06-05T20:29:47.421Z,6.00
2018-06-05T20:32:16.367Z,8.73
2018-06-05T20:34:45.329Z,13.70
2018-06-05T20:37:14.118Z,7.67
2018-06-05T20:39:42.862Z,5.70
2018-06-05T20:42:11.634Z,5.77
2018-06-05T20:44:40.383Z,4.73
2018-06-05T20:47:08.969Z,6.80
2018-06-05T20:49:37.685Z,3.67
2018-06-05T20:52:06.476Z,4.47
2018-06-05T20:54:35.197Z,3.83
2018-06-05T20:57:03.953Z,4.00
2018-06-05T20:59:32.702Z,3.03
2018-06-05T21:02:01.301Z,3.40
2018-06-05T21:04:29.961Z,4.40
2018-06-05T21:06:58.512Z,3.23
2018-06-05T21:09:27.197Z,4.23
2018-06-05T21:11:55.977Z,3.23
2018-06-05T21:14:24.727Z,3.33
2018-06-05T21:16:53.515Z,5.83
2018-06-05T21:19:22.248Z,3.20
2018-06-05T21:21:51.010Z,4.13
2018-06-05T21:24:19.749Z,4.20
2018-06-05T21:26:48.529Z,3.73
2018-06-05T21:29:17.282Z,1.90
2018-06-05T21:31:46.102Z,4.77
2018-06-05T21:34:14.877Z,3.63
2018-06-05T21:36:43.657Z,4.10
2018-06-05T21:39:12.393Z,3.73
2018-06-05T21:41:40.950Z,1.53
2018-06-05T21:44:09.600Z,4.90
2018-06-05T21:46:38.592Z,1.70
2018-06-05T21:49:07.349Z,3.73
2018-06-05T21:51:36.111Z,2.50
2018-06-05T21:54:04.977Z,3.77
2018-06-05T21:56:33.725Z,1.87
2018-06-05T21:59:02.490Z,1.57
2018-06-05T22:01:31.329Z,2.40
2018-06-05T22:04:00.069Z,3.67
2018-06-05T22:06:28.660Z,5.53
2018-06-05T22:08:57.334Z,4.57
2018-06-05T22:11:26.093Z,2.70
2018-06-05T22:13:54.881Z,4.37
2018-06-05T22:16:23.653Z,6.27
2018-06-05T22:18:52.401Z,2.50
2018-06-05T22:21:20.997Z,3.77
2018-06-05T22:23:49.654Z,4.57
2018-06-05T22:26:18.392Z,7.50
2018-06-05T22:28:47.144Z,5.07
2018-06-05T22:31:15.677Z,2.80
2018-06-05T22:33:44.349Z,2.60
2018-06-05T22:36:13.089Z,3.93
2018-06-05T22:38:41.845Z,2.30
2018-06-05T22:41:10.585Z,3.83
2018-06-05T22:43:39.353Z,2.17
2018-06-05T22:46:08.109Z,3.50
2018-06-05T22:48:36.877Z,1.97
2018-06-05T22:51:05.603Z,3.20
2018-06-05T22:53:34.349Z,2.97
2018-06-05T22:56:03.089Z,3.00
2018-06-05T22:58:31.859Z,3.43
2018-06-05T23:01:00.593Z,3.60
2018-06-05T23:03:29.356Z,6.57
2018-06-05T23:05:58.106Z,2.83
2018-06-05T23:08:26.911Z,5.17
2018-06-05T23:10:55.669Z,2.07
2018-06-05T23:13:24.429Z,3.03
2018-06-05T23:15:53.194Z,6.00
2018-06-05T23:18:22.010Z,3.97
2018-06-05T23:20:50.769Z,3.27
2018-06-05T23:23:19.539Z,2.97
2018-06-05T23:25:48.321Z,3.73
2018-06-05T23:28:17.087Z,2.60
2018-06-05T23:30:45.934Z,3.67
2018-06-05T23:33:14.586Z,3.07
2018-06-05T23:35:43.245Z,6.83
2018-06-05T23:38:12.003Z,2.27
2018-06-05T23:40:40.745Z,3.17
2018-06-05T23:43:09.538Z,2.87
2018-06-05T23:45:38.293Z,3.43
2018-06-05T23:48:07.061Z,2.90
2018-06-05T23:50:35.817Z,4.43
2018-06-05T23:53:04.678Z,4.40
2018-06-05T23:55:33.409Z,3.03
2018-06-05T23:58:02.164Z,5.40
